Date,TemperatureHighF,TemperatureAvgF,TemperatureLowF,DewpointHighF,DewpointAvgF,DewpointLowF,HumidityHigh,HumidityAvg,HumidityLow,PressureMaxIn,PressureMinIn,WindSpeedMaxMPH,WindSpeedAvgMPH,GustSpeedMaxMPH,PrecipitationSumIn
2013-1-1,38.5,32.7,28.4,32.6,29.7,26.6,93,89,77,30.50,30.35,2,0,4,0.02
2013-1-2,47.1,38.2,32.9,30.8,24.0,18.3,86,58,38,30.33,30.15,5,2,7,0.00
2013-1-3,45.1,37.4,32.2,33.5,19.9,16.2,91,51,34,30.15,30.05,8,4,14,0.06
2013-1-4,47.9,42.0,36.8,42.9,39.3,34.7,93,90,80,30.27,30.10,9,2,10,0.01
2013-1-5,42.1,40.8,37.8,36.3,33.6,30.1,90,76,65,30.16,30.05,6,2,11,0.11
2013-1-6,42.6,39.8,37.6,38.2,36.9,35.4,93,89,81,30.13,29.94,7,3,9,0.32
2013-1-7,47.6,43.7,39.3,46.0,41.8,37.2,94,93,91,30.09,29.76,9,3,13,0.89
2013-1-8,49.4,44.2,39.5,47.8,42.2,37.4,94,93,91,30.10,29.65,14,4,18,0.72
2013-1-9,48.8,38.1,32.9,46.9,36.2,31.1,94,93,92,29.91,29.57,7,2,25,1.30
2013-1-10,33.7,33.5,33.4,32.0,31.9,31.9,94,94,93,29.95,29.91,3,2,3,0.00
2013-1-11,34.6,29.6,25.4,32.0,27.5,23.1,93,92,89,30.34,30.27,2,0,3,0.07
2013-1-12,32.8,27.7,24.7,27.0,23.7,21.9,90,85,71,30.44,30.32,5,1,6,0.06
2013-1-13,33.1,27.8,24.1,26.7,23.5,21.1,89,84,72,30.50,30.45,2,0,3,0.02
2013-1-14,32.9,31.2,29.0,31.1,28.4,25.4,93,89,85,30.56,30.48,2,0,3,0.03
2013-1-15,40.8,34.9,31.0,37.8,31.6,28.4,94,88,72,30.70,30.57,2,0,3,0.01
2013-1-16,40.2,32.4,27.8,33.2,29.3,25.8,93,88,74,30.68,30.52,2,0,5,0.00
2013-1-17,40.9,33.3,27.5,34.3,30.5,25.8,93,90,77,30.52,30.27,4,1,4,0.01
2013-1-18,33.7,30.3,27.5,31.4,28.3,25.5,93,92,91,30.35,30.25,2,0,5,0.01
2013-1-19,30.1,27.4,24.7,28.3,25.4,22.5,93,92,91,30.40,30.34,2,0,2,0.02
2013-1-20,32.2,27.7,22.9,30.4,25.7,20.4,94,92,90,30.41,30.27,2,0,2,0.01
2013-1-21,30.3,26.4,22.1,28.5,24.3,19.4,93,91,89,30.27,30.15,2,0,2,0.00
2013-1-22,40.8,32.6,24.7,38.3,30.4,22.5,94,92,66,30.16,29.85,2,0,5,0.00
2013-1-23,43.9,40.1,36.9,37.8,32.4,24.5,93,75,46,30.05,29.78,8,2,12,0.42
2013-1-24,43.5,40.2,38.6,38.2,36.5,34.3,94,87,73,30.17,29.99,6,2,14,0.18
2013-1-25,48.3,43.4,39.3,42.8,40.2,36.0,94,89,77,29.99,29.86,11,2,12,0.04
2013-1-26,40.1,38.1,35.9,37.0,35.6,34.1,93,91,82,29.95,29.81,6,2,10,0.98
2013-1-27,39.8,37.9,35.6,38.2,36.2,33.8,94,94,93,30.00,29.94,6,2,9,0.43
2013-1-28,37.3,35.9,33.8,35.7,34.4,32.3,94,94,94,30.03,29.95,3,2,7,1.99
2013-1-29,43.6,40.5,38.3,42.3,39.0,36.7,95,94,94,30.29,30.04,6,2,7,1.34
2013-1-30,47.4,44.4,41.8,46.0,42.9,40.2,95,95,94,30.33,30.29,5,1,8,0.19
2013-1-31,45.5,44.8,44.1,43.9,43.2,42.4,95,94,92,30.32,30.25,6,2,12,0.19